sensor_id;sensor_type;location;lat;lon;timestamp;P1;durP1;ratioP1;P2;durP2;ratioP2
67816;SDS011;54614;47.576;7.524;2023-03-11T00:00:34;6.57;;;1.30;;
67816;SDS011;54614;47.576;7.524;2023-03-11T00:03:04;2.75;;;1.50;;
67816;SDS011;54614;47.576;7.524;2023-03-11T00:05:33;5.82;;;1.40;;
67816;SDS011;54614;47.576;7.524;2023-03-11T00:08:05;2.45;;;1.20;;
67816;SDS011;54614;47.576;7.524;2023-03-11T00:10:34;2.20;;;1.25;;
67816;SDS011;54614;47.576;7.524;2023-03-11T00:13:04;2.40;;;1.20;;
67816;SDS011;54614;47.576;7.524;2023-03-11T00:15:34;1.90;;;1.40;;
67816;SDS011;54614;47.576;7.524;2023-03-11T00:18:01;1.20;;;1.10;;
67816;SDS011;54614;47.576;7.524;2023-03-11T00:22:56;1.42;;;1.20;;
67816;SDS011;54614;47.576;7.524;2023-03-11T00:25:24;2.35;;;1.30;;
67816;SDS011;54614;47.576;7.524;2023-03-11T00:27:52;3.80;;;1.35;;
67816;SDS011;54614;47.576;7.524;2023-03-11T00:30:18;2.70;;;1.10;;
67816;SDS011;54614;47.576;7.524;2023-03-11T00:32:55;1.33;;;1.10;;
67816;SDS011;54614;47.576;7.524;2023-03-11T00:35:23;3.38;;;1.30;;
67816;SDS011;54614;47.576;7.524;2023-03-11T00:37:56;1.83;;;1.20;;
67816;SDS011;54614;47.576;7.524;2023-03-11T00:40:26;3.55;;;1.30;;
67816;SDS011;54614;47.576;7.524;2023-03-11T00:42:54;3.90;;;1.30;;
67816;SDS011;54614;47.576;7.524;2023-03-11T00:45:22;1.85;;;1.05;;
67816;SDS011;54614;47.576;7.524;2023-03-11T00:47:49;1.92;;;1.35;;
67816;SDS011;54614;47.576;7.524;2023-03-11T00:50:17;1.92;;;1.10;;
67816;SDS011;54614;47.576;7.524;2023-03-11T00:52:55;1.48;;;1.35;;
67816;SDS011;54614;47.576;7.524;2023-03-11T00:55:24;1.83;;;1.30;;
67816;SDS011;54614;47.576;7.524;2023-03-11T00:58:00;1.65;;;1.20;;
67816;SDS011;54614;47.576;7.524;2023-03-11T01:00:29;1.27;;;1.17;;
67816;SDS011;54614;47.576;7.524;2023-03-11T01:02:56;1.40;;;1.10;;
67816;SDS011;54614;47.576;7.524;2023-03-11T01:05:24;1.73;;;1.17;;
67816;SDS011;54614;47.576;7.524;2023-03-11T01:07:56;1.75;;;1.10;;
67816;SDS011;54614;47.576;7.524;2023-03-11T01:10:23;1.25;;;1.08;;
67816;SDS011;54614;47.576;7.524;2023-03-11T01:12:50;4.57;;;1.35;;
67816;SDS011;54614;47.576;7.524;2023-03-11T01:15:18;2.50;;;1.10;;
67816;SDS011;54614;47.576;7.524;2023-03-11T01:17:52;1.60;;;1.10;;
67816;SDS011;54614;47.576;7.524;2023-03-11T01:20:18;1.30;;;1.20;;
67816;SDS011;54614;47.576;7.524;2023-03-11T01:22:44;2.03;;;1.20;;
67816;SDS011;54614;47.576;7.524;2023-03-11T01:25:11;1.48;;;1.10;;
67816;SDS011;54614;47.576;7.524;2023-03-11T01:27:39;1.30;;;1.13;;
67816;SDS011;54614;47.576;7.524;2023-03-11T01:30:06;1.77;;;1.20;;
67816;SDS011;54614;47.576;7.524;2023-03-11T01:32:36;2.88;;;1.20;;
67816;SDS011;54614;47.576;7.524;2023-03-11T01:35:02;1.60;;;1.10;;
67816;SDS011;54614;47.576;7.524;2023-03-11T01:37:28;1.20;;;1.10;;
67816;SDS011;54614;47.576;7.524;2023-03-11T01:39:54;1.20;;;1.10;;
67816;SDS011;54614;47.576;7.524;2023-03-11T01:42:20;1.30;;;1.17;;
67816;SDS011;54614;47.576;7.524;2023-03-11T01:44:46;1.52;;;1.00;;
67816;SDS011;54614;47.576;7.524;2023-03-11T01:49:38;1.58;;;1.00;;
67816;SDS011;54614;47.576;7.524;2023-03-11T01:52:07;1.45;;;1.00;;
67816;SDS011;54614;47.576;7.524;2023-03-11T01:54:34;1.40;;;1.20;;
67816;SDS011;54614;47.576;7.524;2023-03-11T01:57:04;3.42;;;1.27;;
67816;SDS011;54614;47.576;7.524;2023-03-11T01:59:37;1.42;;;1.08;;
67816;SDS011;54614;47.576;7.524;2023-03-11T02:02:19;1.20;;;1.10;;
67816;SDS011;54614;47.576;7.524;2023-03-11T02:04:52;1.35;;;1.20;;
67816;SDS011;54614;47.576;7.524;2023-03-11T02:07:19;1.35;;;1.13;;
67816;SDS011;54614;47.576;7.524;2023-03-11T02:09:45;3.95;;;1.10;;
67816;SDS011;54614;47.576;7.524;2023-03-11T02:12:11;1.15;;;1.00;;
67816;SDS011;54614;47.576;7.524;2023-03-11T02:14:41;0.90;;;0.90;;
67816;SDS011;54614;47.576;7.524;2023-03-11T02:17:11;1.10;;;1.08;;
67816;SDS011;54614;47.576;7.524;2023-03-11T02:22:30;1.23;;;1.13;;
67816;SDS011;54614;47.576;7.524;2023-03-11T02:28:00;1.75;;;1.00;;
67816;SDS011;54614;47.576;7.524;2023-03-11T02:30:31;1.85;;;1.08;;
67816;SDS011;54614;47.576;7.524;2023-03-11T02:32:59;2.47;;;1.00;;
67816;SDS011;54614;47.576;7.524;2023-03-11T02:35:27;1.17;;;0.90;;
67816;SDS011;54614;47.576;7.524;2023-03-11T02:37:53;3.15;;;1.10;;
67816;SDS011;54614;47.576;7.524;2023-03-11T02:43:03;1.17;;;0.90;;
67816;SDS011;54614;47.576;7.524;2023-03-11T02:45:34;1.00;;;0.95;;
67816;SDS011;54614;47.576;7.524;2023-03-11T02:48:04;0.93;;;0.93;;
67816;SDS011;54614;47.576;7.524;2023-03-11T02:50:34;0.80;;;0.80;;
67816;SDS011;54614;47.576;7.524;2023-03-11T02:53:01;1.58;;;1.02;;
67816;SDS011;54614;47.576;7.524;2023-03-11T02:55:29;4.13;;;0.95;;
67816;SDS011;54614;47.576;7.524;2023-03-11T02:57:56;1.20;;;1.10;;
67816;SDS011;54614;47.576;7.524;2023-03-11T03:00:22;1.52;;;1.08;;
67816;SDS011;54614;47.576;7.524;2023-03-11T03:02:49;0.90;;;0.90;;
67816;SDS011;54614;47.576;7.524;2023-03-11T03:05:18;1.25;;;0.90;;
67816;SDS011;54614;47.576;7.524;2023-03-11T03:07:46;1.00;;;1.00;;
67816;SDS011;54614;47.576;7.524;2023-03-11T03:10:13;0.90;;;0.90;;
67816;SDS011;54614;47.576;7.524;2023-03-11T03:12:41;4.13;;;0.93;;
67816;SDS011;54614;47.576;7.524;2023-03-11T03:15:08;1.20;;;1.10;;
67816;SDS011;54614;47.576;7.524;2023-03-11T03:17:35;0.70;;;0.70;;
67816;SDS011;54614;47.576;7.524;2023-03-11T03:20:01;0.90;;;0.90;;
67816;SDS011;54614;47.576;7.524;2023-03-11T03:22:30;0.90;;;0.90;;
67816;SDS011;54614;47.576;7.524;2023-03-11T03:24:56;1.30;;;0.90;;
67816;SDS011;54614;47.576;7.524;2023-03-11T03:27:21;1.27;;;0.80;;
67816;SDS011;54614;47.576;7.524;2023-03-11T03:29:47;0.90;;;0.88;;
67816;SDS011;54614;47.576;7.524;2023-03-11T03:32:13;2.30;;;0.90;;
67816;SDS011;54614;47.576;7.524;2023-03-11T03:34:39;0.88;;;0.88;;
67816;SDS011;54614;47.576;7.524;2023-03-11T03:37:04;0.88;;;0.88;;
67816;SDS011;54614;47.576;7.524;2023-03-11T03:39:31;1.58;;;1.00;;
67816;SDS011;54614;47.576;7.524;2023-03-11T03:41:57;2.05;;;0.80;;
67816;SDS011;54614;47.576;7.524;2023-03-11T03:44:23;0.90;;;0.90;;
67816;SDS011;54614;47.576;7.524;2023-03-11T03:46:50;1.63;;;0.90;;
67816;SDS011;54614;47.576;7.524;2023-03-11T03:49:16;3.15;;;0.90;;
67816;SDS011;54614;47.576;7.524;2023-03-11T03:51:41;1.17;;;0.90;;
67816;SDS011;54614;47.576;7.524;2023-03-11T03:54:07;0.80;;;0.80;;
67816;SDS011;54614;47.576;7.524;2023-03-11T03:56:33;0.85;;;0.85;;
67816;SDS011;54614;47.576;7.524;2023-03-11T03:58:59;1.00;;;1.00;;
67816;SDS011;54614;47.576;7.524;2023-03-11T04:01:25;1.15;;;0.93;;
67816;SDS011;54614;47.576;7.524;2023-03-11T04:03:50;0.85;;;0.85;;
67816;SDS011;54614;47.576;7.524;2023-03-11T04:06:23;1.35;;;0.95;;
67816;SDS011;54614;47.576;7.524;2023-03-11T04:08:52;1.33;;;0.98;;
67816;SDS011;54614;47.576;7.524;2023-03-11T04:11:19;0.90;;;0.90;;
67816;SDS011;54614;47.576;7.524;2023-03-11T04:13:45;1.10;;;1.00;;
67816;SDS011;54614;47.576;7.524;2023-03-11T04:16:15;0.77;;;0.77;;
67816;SDS011;54614;47.576;7.524;2023-03-11T04:18:44;0.80;;;0.80;;
67816;SDS011;54614;47.576;7.524;2023-03-11T04:21:10;1.98;;;0.85;;
67816;SDS011;54614;47.576;7.524;2023-03-11T04:23:36;0.80;;;0.80;;
67816;SDS011;54614;47.576;7.524;2023-03-11T04:26:02;1.27;;;0.88;;
67816;SDS011;54614;47.576;7.524;2023-03-11T04:28:28;0.95;;;0.90;;
67816;SDS011;54614;47.576;7.524;2023-03-11T04:30:54;1.70;;;0.80;;
67816;SDS011;54614;47.576;7.524;2023-03-11T04:33:20;0.85;;;0.70;;
67816;SDS011;54614;47.576;7.524;2023-03-11T04:35:46;2.33;;;1.10;;
67816;SDS011;54614;47.576;7.524;2023-03-11T04:38:12;3.55;;;1.00;;
67816;SDS011;54614;47.576;7.524;2023-03-11T04:40:38;0.85;;;0.80;;
67816;SDS011;54614;47.576;7.524;2023-03-11T04:43:04;2.35;;;0.90;;
67816;SDS011;54614;47.576;7.524;2023-03-11T04:45:30;0.82;;;0.80;;
67816;SDS011;54614;47.576;7.524;2023-03-11T04:47:57;1.58;;;0.80;;
67816;SDS011;54614;47.576;7.524;2023-03-11T04:50:23;0.90;;;0.90;;
67816;SDS011;54614;47.576;7.524;2023-03-11T04:52:49;1.75;;;0.77;;
67816;SDS011;54614;47.576;7.524;2023-03-11T04:55:15;0.80;;;0.80;;
67816;SDS011;54614;47.576;7.524;2023-03-11T04:57:41;0.80;;;0.80;;
67816;SDS011;54614;47.576;7.524;2023-03-11T05:00:08;0.82;;;0.82;;
67816;SDS011;54614;47.576;7.524;2023-03-11T05:02:37;1.27;;;0.80;;
67816;SDS011;54614;47.576;7.524;2023-03-11T05:05:05;0.82;;;0.82;;
67816;SDS011;54614;47.576;7.524;2023-03-11T05:07:32;1.75;;;0.80;;
67816;SDS011;54614;47.576;7.524;2023-03-11T05:09:58;0.80;;;0.80;;
67816;SDS011;54614;47.576;7.524;2023-03-11T05:12:25;0.73;;;0.73;;
67816;SDS011;54614;47.576;7.524;2023-03-11T05:14:51;1.08;;;0.70;;
67816;SDS011;54614;47.576;7.524;2023-03-11T05:17:17;0.95;;;0.90;;
67816;SDS011;54614;47.576;7.524;2023-03-11T05:19:43;0.80;;;0.80;;
67816;SDS011;54614;47.576;7.524;2023-03-11T05:22:10;1.40;;;0.90;;
67816;SDS011;54614;47.576;7.524;2023-03-11T05:24:36;0.70;;;0.70;;
67816;SDS011;54614;47.576;7.524;2023-03-11T05:27:02;0.70;;;0.70;;
67816;SDS011;54614;47.576;7.524;2023-03-11T05:29:29;1.77;;;0.80;;
67816;SDS011;54614;47.576;7.524;2023-03-11T05:31:56;0.73;;;0.70;;
67816;SDS011;54614;47.576;7.524;2023-03-11T05:34:22;0.80;;;0.80;;
67816;SDS011;54614;47.576;7.524;2023-03-11T05:36:48;0.98;;;0.70;;
67816;SDS011;54614;47.576;7.524;2023-03-11T05:39:14;1.10;;;0.85;;
67816;SDS011;54614;47.576;7.524;2023-03-11T05:41:40;0.80;;;0.80;;
67816;SDS011;54614;47.576;7.524;2023-03-11T05:44:06;1.67;;;0.70;;
67816;SDS011;54614;47.576;7.524;2023-03-11T05:46:32;0.70;;;0.70;;
67816;SDS011;54614;47.576;7.524;2023-03-11T05:48:58;0.88;;;0.88;;
67816;SDS011;54614;47.576;7.524;2023-03-11T05:51:24;0.60;;;0.60;;
67816;SDS011;54614;47.576;7.524;2023-03-11T05:53:51;0.70;;;0.70;;
67816;SDS011;54614;47.576;7.524;2023-03-11T05:56:18;1.38;;;0.70;;
67816;SDS011;54614;47.576;7.524;2023-03-11T05:58:46;0.95;;;0.80;;
67816;SDS011;54614;47.576;7.524;2023-03-11T06:01:14;1.75;;;0.80;;
67816;SDS011;54614;47.576;7.524;2023-03-11T06:03:42;0.60;;;0.60;;
67816;SDS011;54614;47.576;7.524;2023-03-11T06:06:09;0.70;;;0.70;;
67816;SDS011;54614;47.576;7.524;2023-03-11T06:08:37;2.20;;;0.80;;
67816;SDS011;54614;47.576;7.524;2023-03-11T06:11:04;0.70;;;0.70;;
67816;SDS011;54614;47.576;7.524;2023-03-11T06:13:34;0.80;;;0.70;;
67816;SDS011;54614;47.576;7.524;2023-03-11T06:16:01;0.80;;;0.80;;
67816;SDS011;54614;47.576;7.524;2023-03-11T06:18:28;0.80;;;0.80;;
67816;SDS011;54614;47.576;7.524;2023-03-11T06:20:56;1.75;;;0.80;;
67816;SDS011;54614;47.576;7.524;2023-03-11T06:23:24;4.88;;;0.85;;
67816;SDS011;54614;47.576;7.524;2023-03-11T06:26:01;0.80;;;0.60;;
67816;SDS011;54614;47.576;7.524;2023-03-11T06:28:30;0.80;;;0.80;;
67816;SDS011;54614;47.576;7.524;2023-03-11T06:31:05;1.52;;;0.63;;
67816;SDS011;54614;47.576;7.524;2023-03-11T06:33:39;0.80;;;0.80;;
67816;SDS011;54614;47.576;7.524;2023-03-11T06:36:05;0.80;;;0.80;;
67816;SDS011;54614;47.576;7.524;2023-03-11T06:38:32;0.70;;;0.70;;
67816;SDS011;54614;47.576;7.524;2023-03-11T06:40:59;0.70;;;0.70;;
67816;SDS011;54614;47.576;7.524;2023-03-11T06:43:27;0.77;;;0.77;;
67816;SDS011;54614;47.576;7.524;2023-03-11T06:45:55;1.60;;;0.80;;
67816;SDS011;54614;47.576;7.524;2023-03-11T06:48:22;0.70;;;0.70;;
67816;SDS011;54614;47.576;7.524;2023-03-11T06:50:52;3.40;;;0.82;;
67816;SDS011;54614;47.576;7.524;2023-03-11T06:53:19;2.63;;;0.80;;
67816;SDS011;54614;47.576;7.524;2023-03-11T06:55:45;2.15;;;0.80;;
67816;SDS011;54614;47.576;7.524;2023-03-11T06:58:25;1.73;;;0.80;;
67816;SDS011;54614;47.576;7.524;2023-03-11T07:00:51;1.85;;;0.73;;
67816;SDS011;54614;47.576;7.524;2023-03-11T07:03:17;2.65;;;0.80;;
67816;SDS011;54614;47.576;7.524;2023-03-11T07:05:44;1.75;;;0.68;;
67816;SDS011;54614;47.576;7.524;2023-03-11T07:08:09;2.72;;;0.90;;
67816;SDS011;54614;47.576;7.524;2023-03-11T07:10:35;1.88;;;0.60;;
67816;SDS011;54614;47.576;7.524;2023-03-11T07:13:01;2.33;;;0.70;;
67816;SDS011;54614;47.576;7.524;2023-03-11T07:15:27;1.60;;;0.82;;
67816;SDS011;54614;47.576;7.524;2023-03-11T07:17:53;3.47;;;0.80;;
67816;SDS011;54614;47.576;7.524;2023-03-11T07:20:19;1.15;;;0.88;;
67816;SDS011;54614;47.576;7.524;2023-03-11T07:22:44;3.78;;;0.70;;
67816;SDS011;54614;47.576;7.524;2023-03-11T07:25:10;1.92;;;0.80;;
67816;SDS011;54614;47.576;7.524;2023-03-11T07:27:36;1.50;;;1.15;;
67816;SDS011;54614;47.576;7.524;2023-03-11T07:30:02;3.55;;;0.85;;
67816;SDS011;54614;47.576;7.524;2023-03-11T07:32:28;6.13;;;0.90;;
67816;SDS011;54614;47.576;7.524;2023-03-11T07:34:54;2.75;;;0.90;;
67816;SDS011;54614;47.576;7.524;2023-03-11T07:37:20;5.18;;;0.88;;
67816;SDS011;54614;47.576;7.524;2023-03-11T07:39:46;2.38;;;0.90;;
67816;SDS011;54614;47.576;7.524;2023-03-11T07:42:11;6.10;;;1.05;;
67816;SDS011;54614;47.576;7.524;2023-03-11T07:44:37;0.80;;;0.70;;
67816;SDS011;54614;47.576;7.524;2023-03-11T07:47:03;3.25;;;0.90;;
67816;SDS011;54614;47.576;7.524;2023-03-11T07:49:30;3.05;;;0.70;;
67816;SDS011;54614;47.576;7.524;2023-03-11T07:51:56;4.95;;;0.90;;
67816;SDS011;54614;47.576;7.524;2023-03-11T07:54:22;1.83;;;0.88;;
67816;SDS011;54614;47.576;7.524;2023-03-11T07:56:48;3.40;;;0.90;;
67816;SDS011;54614;47.576;7.524;2023-03-11T07:59:14;3.40;;;0.82;;
67816;SDS011;54614;47.576;7.524;2023-03-11T08:01:40;2.05;;;0.90;;
67816;SDS011;54614;47.576;7.524;2023-03-11T08:04:11;4.60;;;0.80;;
67816;SDS011;54614;47.576;7.524;2023-03-11T08:06:41;1.15;;;0.65;;
67816;SDS011;54614;47.576;7.524;2023-03-11T08:09:10;2.92;;;0.80;;
67816;SDS011;54614;47.576;7.524;2023-03-11T08:11:37;2.70;;;0.90;;
67816;SDS011;54614;47.576;7.524;2023-03-11T08:14:03;0.85;;;0.80;;
67816;SDS011;54614;47.576;7.524;2023-03-11T08:16:29;1.45;;;0.90;;
67816;SDS011;54614;47.576;7.524;2023-03-11T08:18:56;2.38;;;0.80;;
67816;SDS011;54614;47.576;7.524;2023-03-11T08:21:23;5.95;;;1.00;;
67816;SDS011;54614;47.576;7.524;2023-03-11T08:23:55;3.30;;;0.82;;
67816;SDS011;54614;47.576;7.524;2023-03-11T08:26:23;4.40;;;1.00;;
67816;SDS011;54614;47.576;7.524;2023-03-11T08:28:49;6.07;;;1.10;;
67816;SDS011;54614;47.576;7.524;2023-03-11T08:33:48;2.90;;;1.00;;
67816;SDS011;54614;47.576;7.524;2023-03-11T08:36:18;1.42;;;0.90;;
67816;SDS011;54614;47.576;7.524;2023-03-11T08:38:45;6.15;;;0.82;;
67816;SDS011;54614;47.576;7.524;2023-03-11T08:41:12;3.60;;;1.10;;
67816;SDS011;54614;47.576;7.524;2023-03-11T08:43:38;9.07;;;1.20;;
67816;SDS011;54614;47.576;7.524;2023-03-11T08:46:06;8.27;;;1.75;;
67816;SDS011;54614;47.576;7.524;2023-03-11T08:48:33;4.63;;;1.38;;
67816;SDS011;54614;47.576;7.524;2023-03-11T08:51:00;11.57;;;1.70;;
67816;SDS011;54614;47.576;7.524;2023-03-11T08:53:27;8.38;;;1.60;;
67816;SDS011;54614;47.576;7.524;2023-03-11T08:55:53;3.78;;;1.65;;
67816;SDS011;54614;47.576;7.524;2023-03-11T08:58:19;3.97;;;2.00;;
67816;SDS011;54614;47.576;7.524;2023-03-11T09:00:45;9.95;;;2.00;;
67816;SDS011;54614;47.576;7.524;2023-03-11T09:03:11;6.53;;;2.30;;
67816;SDS011;54614;47.576;7.524;2023-03-11T09:05:37;4.30;;;1.90;;
67816;SDS011;54614;47.576;7.524;2023-03-11T09:08:03;4.63;;;1.85;;
67816;SDS011;54614;47.576;7.524;2023-03-11T09:10:29;4.75;;;1.80;;
67816;SDS011;54614;47.576;7.524;2023-03-11T09:12:55;7.50;;;1.70;;
67816;SDS011;54614;47.576;7.524;2023-03-11T09:15:21;10.77;;;2.20;;
67816;SDS011;54614;47.576;7.524;2023-03-11T09:17:47;3.85;;;2.15;;
67816;SDS011;54614;47.576;7.524;2023-03-11T09:20:13;3.10;;;1.70;;
67816;SDS011;54614;47.576;7.524;2023-03-11T09:22:39;3.88;;;2.00;;
67816;SDS011;54614;47.576;7.524;2023-03-11T09:25:05;8.55;;;2.08;;
67816;SDS011;54614;47.576;7.524;2023-03-11T09:27:33;7.07;;;1.70;;
67816;SDS011;54614;47.576;7.524;2023-03-11T09:29:59;5.60;;;1.77;;
67816;SDS011;54614;47.576;7.524;2023-03-11T09:32:25;4.70;;;1.90;;
67816;SDS011;54614;47.576;7.524;2023-03-11T09:34:51;2.67;;;1.67;;
67816;SDS011;54614;47.576;7.524;2023-03-11T09:37:16;4.85;;;1.77;;
67816;SDS011;54614;47.576;7.524;2023-03-11T09:39:42;10.73;;;1.85;;
67816;SDS011;54614;47.576;7.524;2023-03-11T09:42:23;12.43;;;1.83;;
67816;SDS011;54614;47.576;7.524;2023-03-11T09:45:33;11.02;;;2.10;;
67816;SDS011;54614;47.576;7.524;2023-03-11T09:53:41;9.38;;;1.90;;
67816;SDS011;54614;47.576;7.524;2023-03-11T09:56:15;6.35;;;1.75;;
67816;SDS011;54614;47.576;7.524;2023-03-11T09:58:46;2.78;;;1.40;;
67816;SDS011;54614;47.576;7.524;2023-03-11T10:07:00;5.88;;;1.63;;
67816;SDS011;54614;47.576;7.524;2023-03-11T10:09:40;2.75;;;1.55;;
67816;SDS011;54614;47.576;7.524;2023-03-11T10:21:43;4.60;;;1.55;;
67816;SDS011;54614;47.576;7.524;2023-03-11T10:24:45;8.23;;;1.75;;
67816;SDS011;54614;47.576;7.524;2023-03-11T10:27:44;5.65;;;2.08;;
67816;SDS011;54614;47.576;7.524;2023-03-11T10:32:57;11.32;;;1.95;;
67816;SDS011;54614;47.576;7.524;2023-03-11T10:35:43;10.48;;;2.08;;
67816;SDS011;54614;47.576;7.524;2023-03-11T10:41:02;8.00;;;2.08;;
67816;SDS011;54614;47.576;7.524;2023-03-11T10:43:40;7.25;;;1.65;;
67816;SDS011;54614;47.576;7.524;2023-03-11T10:46:20;10.73;;;1.85;;
67816;SDS011;54614;47.576;7.524;2023-03-11T10:48:51;9.52;;;2.03;;
67816;SDS011;54614;47.576;7.524;2023-03-11T10:51:21;10.27;;;1.63;;
67816;SDS011;54614;47.576;7.524;2023-03-11T10:53:54;11.63;;;1.90;;
67816;SDS011;54614;47.576;7.524;2023-03-11T10:56:32;9.23;;;2.00;;
67816;SDS011;54614;47.576;7.524;2023-03-11T11:02:19;14.88;;;2.30;;
67816;SDS011;54614;47.576;7.524;2023-03-11T11:07:42;6.18;;;1.60;;
67816;SDS011;54614;47.576;7.524;2023-03-11T11:12:52;9.10;;;1.73;;
67816;SDS011;54614;47.576;7.524;2023-03-11T11:17:59;4.22;;;1.77;;
67816;SDS011;54614;47.576;7.524;2023-03-11T11:20:29;6.32;;;1.60;;
67816;SDS011;54614;47.576;7.524;2023-03-11T11:22:58;6.55;;;1.58;;
67816;SDS011;54614;47.576;7.524;2023-03-11T11:25:28;6.65;;;1.60;;
67816;SDS011;54614;47.576;7.524;2023-03-11T11:28:03;7.10;;;1.60;;
67816;SDS011;54614;47.576;7.524;2023-03-11T11:33:32;8.32;;;1.70;;
67816;SDS011;54614;47.576;7.524;2023-03-11T11:36:14;7.15;;;1.58;;
67816;SDS011;54614;47.576;7.524;2023-03-11T11:38:42;15.05;;;1.52;;
67816;SDS011;54614;47.576;7.524;2023-03-11T11:41:08;9.23;;;1.75;;
67816;SDS011;54614;47.576;7.524;2023-03-11T11:48:52;12.85;;;2.10;;
67816;SDS011;54614;47.576;7.524;2023-03-11T11:54:41;5.68;;;1.73;;
67816;SDS011;54614;47.576;7.524;2023-03-11T11:57:28;7.45;;;1.67;;
67816;SDS011;54614;47.576;7.524;2023-03-11T11:59:55;4.20;;;1.50;;
67816;SDS011;54614;47.576;7.524;2023-03-11T12:16:37;5.68;;;1.45;;
67816;SDS011;54614;47.576;7.524;2023-03-11T12:25:26;9.88;;;1.40;;
67816;SDS011;54614;47.576;7.524;2023-03-11T12:31:35;8.07;;;1.48;;
67816;SDS011;54614;47.576;7.524;2023-03-11T12:34:05;5.40;;;1.50;;
67816;SDS011;54614;47.576;7.524;2023-03-11T12:36:37;16.63;;;1.75;;
67816;SDS011;54614;47.576;7.524;2023-03-11T12:39:18;4.93;;;1.63;;
67816;SDS011;54614;47.576;7.524;2023-03-11T12:44:49;6.72;;;1.50;;
67816;SDS011;54614;47.576;7.524;2023-03-11T12:47:16;7.60;;;1.70;;
67816;SDS011;54614;47.576;7.524;2023-03-11T12:49:53;5.47;;;1.60;;
67816;SDS011;54614;47.576;7.524;2023-03-11T12:52:50;5.20;;;1.25;;
67816;SDS011;54614;47.576;7.524;2023-03-11T12:58:31;5.40;;;1.30;;
67816;SDS011;54614;47.576;7.524;2023-03-11T13:01:21;7.85;;;1.20;;
67816;SDS011;54614;47.576;7.524;2023-03-11T13:03:58;5.90;;;1.45;;
67816;SDS011;54614;47.576;7.524;2023-03-11T13:12:38;2.95;;;1.30;;
67816;SDS011;54614;47.576;7.524;2023-03-11T13:15:35;4.63;;;1.50;;
67816;SDS011;54614;47.576;7.524;2023-03-11T13:34:29;4.78;;;1.35;;
67816;SDS011;54614;47.576;7.524;2023-03-11T13:48:17;10.20;;;1.50;;
67816;SDS011;54614;47.576;7.524;2023-03-11T13:50:58;6.28;;;1.38;;
67816;SDS011;54614;47.576;7.524;2023-03-11T13:53:36;21.05;;;1.70;;
67816;SDS011;54614;47.576;7.524;2023-03-11T13:56:31;9.10;;;1.30;;
67816;SDS011;54614;47.576;7.524;2023-03-11T14:01:55;5.78;;;1.35;;
67816;SDS011;54614;47.576;7.524;2023-03-11T14:04:28;3.35;;;1.35;;
67816;SDS011;54614;47.576;7.524;2023-03-11T14:06:57;8.82;;;1.70;;
67816;SDS011;54614;47.576;7.524;2023-03-11T14:09:24;6.28;;;1.27;;
67816;SDS011;54614;47.576;7.524;2023-03-11T14:11:53;2.78;;;1.40;;
67816;SDS011;54614;47.576;7.524;2023-03-11T14:17:16;5.35;;;1.25;;
67816;SDS011;54614;47.576;7.524;2023-03-11T14:20:00;8.70;;;1.30;;
67816;SDS011;54614;47.576;7.524;2023-03-11T14:22:28;3.10;;;1.10;;
67816;SDS011;54614;47.576;7.524;2023-03-11T14:24:56;5.18;;;1.38;;
67816;SDS011;54614;47.576;7.524;2023-03-11T14:27:25;5.03;;;1.20;;
67816;SDS011;54614;47.576;7.524;2023-03-11T14:29:51;3.90;;;1.30;;
67816;SDS011;54614;47.576;7.524;2023-03-11T14:34:53;7.43;;;1.20;;
67816;SDS011;54614;47.576;7.524;2023-03-11T14:37:24;4.50;;;1.23;;
67816;SDS011;54614;47.576;7.524;2023-03-11T14:40:01;3.88;;;1.10;;
67816;SDS011;54614;47.576;7.524;2023-03-11T14:42:45;3.95;;;1.25;;
67816;SDS011;54614;47.576;7.524;2023-03-11T14:47:47;6.28;;;1.20;;
67816;SDS011;54614;47.576;7.524;2023-03-11T14:50:34;7.82;;;1.50;;
67816;SDS011;54614;47.576;7.524;2023-03-11T14:56:04;6.70;;;1.40;;
67816;SDS011;54614;47.576;7.524;2023-03-11T14:58:48;5.57;;;1.30;;
67816;SDS011;54614;47.576;7.524;2023-03-11T15:01:39;5.20;;;1.48;;
67816;SDS011;54614;47.576;7.524;2023-03-11T15:04:12;8.35;;;1.35;;
67816;SDS011;54614;47.576;7.524;2023-03-11T15:07:08;5.70;;;1.38;;
67816;SDS011;54614;47.576;7.524;2023-03-11T15:09:34;11.88;;;1.33;;
67816;SDS011;54614;47.576;7.524;2023-03-11T15:12:04;6.13;;;1.58;;
67816;SDS011;54614;47.576;7.524;2023-03-11T15:14:52;9.48;;;1.42;;
67816;SDS011;54614;47.576;7.524;2023-03-11T15:17:22;2.05;;;1.20;;
67816;SDS011;54614;47.576;7.524;2023-03-11T15:19:52;6.90;;;1.15;;
67816;SDS011;54614;47.576;7.524;2023-03-11T15:24:49;5.65;;;1.48;;
67816;SDS011;54614;47.576;7.524;2023-03-11T15:27:22;5.45;;;1.25;;
67816;SDS011;54614;47.576;7.524;2023-03-11T15:29:55;3.47;;;1.60;;
67816;SDS011;54614;47.576;7.524;2023-03-11T15:32:23;9.55;;;1.25;;
67816;SDS011;54614;47.576;7.524;2023-03-11T15:37:36;3.72;;;1.17;;
67816;SDS011;54614;47.576;7.524;2023-03-11T15:40:24;4.25;;;1.48;;
67816;SDS011;54614;47.576;7.524;2023-03-11T15:43:14;5.03;;;1.10;;
67816;SDS011;54614;47.576;7.524;2023-03-11T15:45:56;4.28;;;1.27;;
67816;SDS011;54614;47.576;7.524;2023-03-11T15:48:26;2.63;;;1.40;;
67816;SDS011;54614;47.576;7.524;2023-03-11T15:50:55;7.32;;;1.33;;
67816;SDS011;54614;47.576;7.524;2023-03-11T15:53:23;5.05;;;1.10;;
67816;SDS011;54614;47.576;7.524;2023-03-11T15:55:51;4.03;;;1.20;;
67816;SDS011;54614;47.576;7.524;2023-03-11T15:58:21;2.53;;;1.30;;
67816;SDS011;54614;47.576;7.524;2023-03-11T16:00:47;5.60;;;1.50;;
67816;SDS011;54614;47.576;7.524;2023-03-11T16:03:16;2.53;;;1.40;;
67816;SDS011;54614;47.576;7.524;2023-03-11T16:05:43;3.67;;;1.50;;
67816;SDS011;54614;47.576;7.524;2023-03-11T16:08:10;2.85;;;1.30;;
67816;SDS011;54614;47.576;7.524;2023-03-11T16:10:37;3.15;;;1.40;;
67816;SDS011;54614;47.576;7.524;2023-03-11T16:13:04;7.25;;;1.60;;
67816;SDS011;54614;47.576;7.524;2023-03-11T16:15:33;9.02;;;1.80;;
67816;SDS011;54614;47.576;7.524;2023-03-11T16:18:02;2.72;;;1.35;;
67816;SDS011;54614;47.576;7.524;2023-03-11T16:20:35;3.45;;;1.23;;
67816;SDS011;54614;47.576;7.524;2023-03-11T16:23:06;6.47;;;1.52;;
67816;SDS011;54614;47.576;7.524;2023-03-11T16:25:46;3.85;;;1.67;;
67816;SDS011;54614;47.576;7.524;2023-03-11T16:28:13;6.85;;;2.00;;
67816;SDS011;54614;47.576;7.524;2023-03-11T16:30:40;3.10;;;1.60;;
67816;SDS011;54614;47.576;7.524;2023-03-11T16:33:07;3.88;;;1.92;;
67816;SDS011;54614;47.576;7.524;2023-03-11T16:35:33;5.03;;;1.60;;
67816;SDS011;54614;47.576;7.524;2023-03-11T16:37:59;4.95;;;1.55;;
67816;SDS011;54614;47.576;7.524;2023-03-11T16:40:27;8.00;;;1.70;;
67816;SDS011;54614;47.576;7.524;2023-03-11T16:42:54;7.07;;;1.80;;
67816;SDS011;54614;47.576;7.524;2023-03-11T16:45:26;7.70;;;1.90;;
67816;SDS011;54614;47.576;7.524;2023-03-11T16:47:52;11.30;;;1.73;;
67816;SDS011;54614;47.576;7.524;2023-03-11T16:50:18;8.65;;;1.60;;
67816;SDS011;54614;47.576;7.524;2023-03-11T16:52:45;5.03;;;1.40;;
67816;SDS011;54614;47.576;7.524;2023-03-11T16:55:11;5.18;;;1.58;;
67816;SDS011;54614;47.576;7.524;2023-03-11T16:57:37;6.03;;;1.70;;
67816;SDS011;54614;47.576;7.524;2023-03-11T17:00:04;5.63;;;1.65;;
67816;SDS011;54614;47.576;7.524;2023-03-11T17:02:34;7.78;;;1.80;;
67816;SDS011;54614;47.576;7.524;2023-03-11T17:05:01;9.60;;;1.48;;
67816;SDS011;54614;47.576;7.524;2023-03-11T17:07:29;5.22;;;1.48;;
67816;SDS011;54614;47.576;7.524;2023-03-11T17:09:56;12.98;;;1.90;;
67816;SDS011;54614;47.576;7.524;2023-03-11T17:12:24;17.75;;;2.17;;
67816;SDS011;54614;47.576;7.524;2023-03-11T17:14:51;23.65;;;2.53;;
67816;SDS011;54614;47.576;7.524;2023-03-11T17:17:18;16.85;;;2.17;;
67816;SDS011;54614;47.576;7.524;2023-03-11T17:19:45;12.50;;;2.10;;
67816;SDS011;54614;47.576;7.524;2023-03-11T17:22:11;11.05;;;2.15;;
67816;SDS011;54614;47.576;7.524;2023-03-11T17:24:38;40.25;;;2.85;;
67816;SDS011;54614;47.576;7.524;2023-03-11T17:27:04;16.52;;;2.65;;